首页
METAR-TAF:

METAR-TAF

机场 :

Spangdahlem, 德国

纬度: 49-59N, 经度: 006-42E, 海拔: 365米

当前天气观测

该预报发布于22分钟前的15:41 UTC
风速14节,风向西南
温度 12°C
湿度 82%
气压 996 hPa
能见度10公里或以上
少量云层高于2600英尺
散云层高于5500英尺
散云层高于7000英尺
多云层高于10000英尺

METAR: ETAD 051541Z AUTO 22014KT 9999 FEW026 SCT055 SCT070 BKN100 12/09 A2940 RMK AO2 SLP948 $

时间: 18:03 (16:03 UTC)

预报

该预报发布于1小时和48分钟前的14:15 UTC
预报有效从05日的 14点(UTC)到 06日的 18点(UTC)
风速12节,风向西南,有时为25节阵风
能見度: 9000
多云层高于1200英尺
多云层高于1700英尺
阴天层高于2500英尺
小阵雨
短暂存在
从 05日的 14点(UTC)到 05日的 18点(UTC)
风速25节,风向,有时为35节阵风
能見度: 6000
多云层高于800英尺
阴天层高于2000英尺
小阵雨
成为
从 05日的 17点(UTC)到 05日的 18点(UTC)
风速10节,风向西转西南,有时为15节阵风
能见度10公里或以上
散云层高于2000英尺
多云层高于3000英尺
阴天层高于6000英尺
成为
从 06日的 06点(UTC)到 06日的 07点(UTC)
风速9节,风向西南
能見度: 9000
散云层高于1000英尺
多云层高于1800英尺
小阵雨

TAF: ETAD 051415Z 0514/0618 22012G25KT 9000 -SHRA BKN012 BKN017 OVC025 610609 QNH2937INS TEMPO 0514/0518 19025G35KT 6000 -SHRA BKN008 OVC020 520003 BECMG 0517/0518 24010G15KT 9999 NSW SCT020 BKN030 OVC060 QNH2938INS BECMG 0606/0607 22009KT 9000 -SHRA SCT010 BKN018 QNH2950INS TX14/0612Z TN07/0604Z

超过4000个机场的气象观测和天气预报(METAR&TAF报告)。

可查询的气象台以黄色和红色小点在地图上表示。

将鼠标移到小点上方,可查看气象台名称。

然后点击查看天气观测和预报。

如需切换地图:点击带黑十字的绿色按钮放大地图;点击带横线的绿色按钮缩小地图;或者点击绿色箭头查看邻近地区的地图。


METAR-TAF: